Time;durP1;ratioP1;P1;durP2;ratioP2;P2;SDS_P1;SDS_P2;PMS_P1;PMS_P2;Temp;Humidity;BMP_temperature;BMP_pressure;BME280_temperature;BME280_humidity;BME280_pressure;Samples;Min_cycle;Max_cycle;Signal;HPM_P1;HPM_P2
2022/03/27 00:01:41;;;;;;;3.47;0.95;;;;;;;6.08;39.94;100092.09;1654957;85;21031;-78
2022/03/27 00:04:09;;;;;;;6.28;1.40;;;;;;;6.09;39.85;100108.30;1649895;85;21124;-74
2022/03/27 00:06:37;;;;;;;8.53;1.35;;;;;;;6.07;39.80;100113.83;1638856;86;21527;-77
2022/03/27 00:09:05;;;;;;;6.92;1.52;;;;;;;6.05;40.24;100108.47;1636208;87;21478;-73
2022/03/27 00:11:34;;;;;;;3.77;1.02;;;;;;;6.00;40.35;100102.57;1638300;86;21777;-75
2022/03/27 00:14:03;;;;;;;6.03;0.93;;;;;;;5.95;40.41;100101.14;1635183;85;21012;-75
2022/03/27 00:16:31;;;;;;;6.65;0.90;;;;;;;5.92;40.30;100096.80;1627763;86;21031;-74
2022/03/27 00:18:58;;;;;;;11.73;1.30;;;;;;;5.87;39.29;100107.60;1629795;86;20964;-75
2022/03/27 00:21:27;;;;;;;6.03;1.20;;;;;;;5.87;39.74;100124.83;1626356;87;22473;-76
2022/03/27 00:23:54;;;;;;;4.12;1.17;;;;;;;5.84;39.36;100127.95;1633335;86;21069;-76
2022/03/27 00:26:21;;;;;;;2.58;0.80;;;;;;;5.83;39.54;100132.98;1633916;85;21091;-76
2022/03/27 00:28:49;;;;;;;5.50;1.30;;;;;;;5.81;39.48;100185.41;1639148;85;21056;-75
2022/03/27 00:31:17;;;;;;;4.28;1.17;;;;;;;5.76;39.05;100129.66;1673349;85;21529;-76
2022/03/27 00:33:46;;;;;;;12.80;1.20;;;;;;;5.74;38.94;100119.81;1707308;83;22008;-76
2022/03/27 00:36:15;;;;;;;5.20;0.93;;;;;;;5.70;38.51;100142.52;1717635;82;21077;-77
2022/03/27 00:38:44;;;;;;;5.75;1.10;;;;;;;5.69;38.65;100156.79;1697593;83;21458;-76
2022/03/27 00:41:12;;;;;;;4.78;1.00;;;;;;;5.65;39.08;100175.53;1704822;83;21011;-75
2022/03/27 00:43:40;;;;;;;5.22;1.10;;;;;;;5.58;38.65;100157.11;1689183;83;21518;-73
2022/03/27 00:46:08;;;;;;;6.22;0.85;;;;;;;5.57;38.85;100155.51;1676645;84;22095;-74
2022/03/27 00:48:35;;;;;;;3.92;1.07;;;;;;;5.52;39.00;100147.97;1672613;83;21111;-75
2022/03/27 00:51:02;;;;;;;4.87;1.30;;;;;;;5.49;39.01;100143.13;1678321;84;21159;-75
2022/03/27 00:53:31;;;;;;;8.35;1.42;;;;;;;5.43;39.02;100149.36;1685778;83;21086;-73
2022/03/27 00:55:58;;;;;;;3.60;1.05;;;;;;;5.38;39.28;100167.28;1683551;83;21035;-76
2022/03/27 00:58:25;;;;;;;4.67;0.90;;;;;;;5.33;38.61;100169.31;1684952;83;21836;-76
2022/03/27 01:01:27;;;;;;;11.03;1.30;;;;;;;5.33;39.34;100175.94;1671266;84;21089;-74
2022/03/27 01:03:55;;;;;;;6.50;1.37;;;;;;;5.30;38.85;100165.80;1684786;83;21019;-74
2022/03/27 01:06:41;;;;;;;6.65;1.32;;;;;;;5.30;39.04;100163.67;1679343;84;21047;-73
2022/03/27 01:12:09;;;;;;;5.08;1.30;;;;;;;5.22;39.22;100171.44;1685665;83;21020;-74
2022/03/27 01:14:36;;;;;;;8.03;1.20;;;;;;;5.22;39.58;100167.45;1681576;83;21522;-75
2022/03/27 01:17:08;;;;;;;7.35;1.50;;;;;;;5.16;39.89;100171.83;1673897;84;21818;-75
2022/03/27 01:19:47;;;;;;;10.35;1.42;;;;;;;5.15;39.48;100182.66;1690576;83;20956;-74
2022/03/27 01:22:16;;;;;;;6.60;1.20;;;;;;;5.11;39.67;100194.75;1688915;84;21075;-74
2022/03/27 01:24:45;;;;;;;4.12;1.22;;;;;;;5.09;39.93;100202.11;1680035;83;21151;-75
2022/03/27 01:27:12;;;;;;;5.15;0.90;;;;;;;5.08;40.41;100209.77;1678376;84;21033;-75
2022/03/27 01:29:39;;;;;;;5.00;1.20;;;;;;;5.08;39.78;100212.41;1678763;83;21089;-75
2022/03/27 01:32:08;;;;;;;3.70;1.10;;;;;;;5.06;39.76;100191.97;1681413;84;21087;-76
2022/03/27 01:34:35;;;;;;;7.85;1.32;;;;;;;5.03;39.63;100173.38;1684776;83;21056;-74
2022/03/27 01:37:09;;;;;;;6.83;1.37;;;;;;;5.01;40.06;100191.88;1676553;83;21218;-77
2022/03/27 01:39:37;;;;;;;4.78;1.62;;;;;;;5.03;40.03;100183.16;1683357;83;21093;-73
2022/03/27 01:42:05;;;;;;;6.50;1.57;;;;;;;4.96;40.43;100188.56;1682628;84;21122;-76
2022/03/27 01:44:33;;;;;;;5.22;1.50;;;;;;;4.92;40.50;100194.84;1659274;85;21027;-75
2022/03/27 01:47:01;;;;;;;9.08;1.82;;;;;;;4.89;40.41;100201.11;1661156;84;21225;-73
2022/03/27 01:49:29;;;;;;;5.00;1.27;;;;;;;4.90;40.69;100202.22;1684294;82;22714;-74
2022/03/27 01:51:56;;;;;;;7.08;1.65;;;;;;;4.87;40.37;100243.69;1685354;84;21125;-75
2022/03/27 01:54:25;;;;;;;7.83;1.80;;;;;;;4.91;40.58;100232.13;1673426;83;21612;-76
2022/03/27 01:56:52;;;;;;;5.85;1.85;;;;;;;4.89;40.53;100211.17;1703654;83;20991;-75
2022/03/27 01:59:21;;;;;;;6.70;1.50;;;;;;;4.92;40.72;100232.41;1687813;83;21148;-75
2022/03/27 02:01:49;;;;;;;5.22;1.50;;;;;;;4.91;41.44;100287.19;1665813;86;21913;-74
2022/03/27 02:04:16;;;;;;;8.70;1.40;;;;;;;4.89;40.97;100233.66;1675083;85;22209;-73
2022/03/27 02:06:43;;;;;;;4.92;1.20;;;;;;;4.87;41.78;100234.42;1686545;83;21073;-74
2022/03/27 02:09:12;;;;;;;6.08;1.00;;;;;;;4.84;42.29;100240.17;1677838;84;21658;-73
2022/03/27 02:11:42;;;;;;;4.65;0.98;;;;;;;4.82;42.56;100257.30;1683695;84;21123;-72
2022/03/27 02:14:10;;;;;;;5.35;1.12;;;;;;;4.79;42.64;100234.73;1679002;83;21276;-76
2022/03/27 02:16:37;;;;;;;3.40;1.00;;;;;;;4.74;43.02;100244.37;1682535;84;21094;-74
2022/03/27 02:19:09;;;;;;;6.90;1.22;;;;;;;4.75;43.13;100263.21;1686648;83;21031;-79
2022/03/27 02:21:38;;;;;;;3.80;0.80;;;;;;;4.75;43.33;100257.92;1690252;84;21083;-76
2022/03/27 02:24:06;;;;;;;5.22;1.50;;;;;;;4.74;43.44;100261.58;1690250;83;21051;-75
2022/03/27 02:26:33;;;;;;;9.05;2.02;;;;;;;4.73;43.41;100267.39;1720671;82;21151;-76
2022/03/27 02:29:01;;;;;;;7.33;1.17;;;;;;;4.73;43.92;100289.88;1722723;83;21007;-76
2022/03/27 02:31:29;;;;;;;4.72;1.17;;;;;;;4.74;43.66;100284.90;1722740;82;21031;-75
2022/03/27 02:33:56;;;;;;;3.52;1.00;;;;;;;4.73;43.61;100284.59;1694754;83;21071;-75
2022/03/27 02:36:25;;;;;;;4.22;0.95;;;;;;;4.69;43.36;100274.17;1660942;83;21170;-73
2022/03/27 02:38:53;;;;;;;4.92;1.02;;;;;;;4.69;43.60;100280.78;1658884;84;21832;-73
2022/03/27 02:41:21;;;;;;;3.60;0.82;;;;;;;4.71;43.90;100282.70;1662588;84;21860;-74
2022/03/27 02:43:50;;;;;;;4.45;1.32;;;;;;;4.70;43.71;100313.64;1691651;83;21011;-73
2022/03/27 02:46:17;;;;;;;3.42;0.90;;;;;;;4.69;44.15;100305.91;1688453;83;21069;-74
2022/03/27 02:48:45;;;;;;;2.15;1.02;;;;;;;4.70;43.90;100299.58;1673717;83;20990;-75
2022/03/27 02:51:11;;;;;;;6.62;1.27;;;;;;;4.68;44.39;100301.14;1682280;83;21607;-75
2022/03/27 02:53:39;;;;;;;7.65;1.42;;;;;;;4.67;44.34;100321.19;1684087;84;21110;-76
2022/03/27 02:56:08;;;;;;;4.08;1.30;;;;;;;4.68;44.44;100309.60;1682022;83;21071;-76
2022/03/27 02:58:35;;;;;;;8.48;2.40;;;;;;;4.66;44.62;100302.39;1688149;83;21063;-73
2022/03/27 03:01:04;;;;;;;2.62;1.00;;;;;;;4.64;44.69;100317.67;1681586;83;21082;-74
2022/03/27 03:03:31;;;;;;;4.08;1.17;;;;;;;4.61;44.34;100315.50;1669314;83;21364;-73
2022/03/27 03:06:01;;;;;;;3.72;1.00;;;;;;;4.61;44.76;100323.44;1664543;85;21571;-75
2022/03/27 03:08:28;;;;;;;3.85;1.32;;;;;;;4.58;44.47;100349.81;1650816;85;21035;-73
2022/03/27 03:10:58;;;;;;;4.28;1.20;;;;;;;4.57;44.04;100338.11;1672230;83;21534;-76
2022/03/27 03:13:25;;;;;;;4.42;1.50;;;;;;;4.54;43.95;100334.59;1682582;84;21133;-74
2022/03/27 03:15:53;;;;;;;4.95;1.15;;;;;;;4.55;44.54;100350.77;1683694;83;21165;-75
2022/03/27 03:18:20;;;;;;;2.77;1.00;;;;;;;4.53;44.19;100339.59;1684619;83;21361;-74
2022/03/27 03:20:48;;;;;;;3.80;0.88;;;;;;;4.50;44.00;100356.70;1682631;84;21066;-74
2022/03/27 03:23:17;;;;;;;2.58;1.10;;;;;;;4.47;44.30;100387.56;1680592;84;21075;-75
2022/03/27 03:25:44;;;;;;;5.08;1.32;;;;;;;4.44;43.59;100364.20;1675698;84;21038;-75
2022/03/27 03:28:12;;;;;;;3.92;1.20;;;;;;;4.42;43.88;100353.05;1680722;84;21920;-76
2022/03/27 03:30:39;;;;;;;4.75;1.17;;;;;;;4.41;43.99;100376.05;1670441;83;21520;-75
2022/03/27 03:33:07;;;;;;;7.15;1.60;;;;;;;4.38;43.68;100369.08;1680995;83;21109;-75
2022/03/27 03:35:35;;;;;;;4.75;1.60;;;;;;;4.36;43.61;100350.77;1679938;83;21011;-78
2022/03/27 03:38:03;;;;;;;4.60;1.90;;;;;;;4.35;43.56;100365.03;1682618;83;21086;-76
2022/03/27 03:40:31;;;;;;;4.08;1.45;;;;;;;4.32;43.80;100354.89;1674918;83;21294;-77
2022/03/27 03:42:58;;;;;;;7.17;1.20;;;;;;;4.31;44.08;100367.83;1721610;82;21677;-75
2022/03/27 03:45:25;;;;;;;3.02;1.00;;;;;;;4.31;43.99;100367.83;1712017;83;21079;-75
2022/03/27 03:47:52;;;;;;;4.40;1.17;;;;;;;4.31;44.73;100386.34;1699027;83;21486;-75
2022/03/27 03:50:19;;;;;;;2.35;1.00;;;;;;;4.31;44.14;100384.17;1687440;84;22167;-77
2022/03/27 03:52:46;;;;;;;3.70;1.10;;;;;;;4.28;44.07;100376.20;1679374;83;21232;-75
2022/03/27 03:55:14;;;;;;;5.30;1.20;;;;;;;4.25;43.99;100396.46;1677157;84;21102;-75
2022/03/27 03:57:41;;;;;;;4.10;1.20;;;;;;;4.27;44.52;100404.16;1683588;83;21106;-76
2022/03/27 04:00:10;;;;;;;2.75;0.90;;;;;;;4.27;44.46;100425.31;1684495;83;21549;-74
2022/03/27 04:02:41;;;;;;;2.00;0.90;;;;;;;4.26;44.48;100416.58;1684985;83;21650;-75
2022/03/27 04:05:09;;;;;;;3.98;1.30;;;;;;;4.22;44.11;100409.59;1670017;83;21372;-75
2022/03/27 04:07:36;;;;;;;3.80;1.02;;;;;;;4.21;44.54;100405.83;1683816;84;21147;-76
2022/03/27 04:10:04;;;;;;;2.77;1.00;;;;;;;4.20;44.94;100412.16;1684697;83;21566;-75
2022/03/27 04:12:33;;;;;;;3.77;1.42;;;;;;;4.20;45.14;100418.25;1691533;83;21050;-74
2022/03/27 04:15:01;;;;;;;4.22;1.40;;;;;;;4.21;45.08;100434.42;1689229;83;21073;-74
2022/03/27 04:17:30;;;;;;;4.22;1.20;;;;;;;4.22;45.04;100415.41;1687717;84;20931;-76
2022/03/27 04:19:57;;;;;;;3.42;1.20;;;;;;;4.22;44.95;100428.62;1699063;83;20971;-75
2022/03/27 04:22:25;;;;;;;4.00;1.20;;;;;;;4.20;45.11;100436.75;1685827;84;21185;-78
2022/03/27 04:24:52;;;;;;;2.75;1.22;;;;;;;4.20;45.31;100441.23;1682543;84;21561;-75
2022/03/27 04:27:20;;;;;;;5.00;1.40;;;;;;;4.19;45.31;100450.20;1684899;84;22426;-74
2022/03/27 04:29:47;;;;;;;9.53;1.90;;;;;;;4.22;45.09;100436.55;1683273;83;21322;-74
2022/03/27 04:32:16;;;;;;;9.90;2.22;;;;;;;4.21;45.30;100455.57;1686268;84;21058;-77
2022/03/27 04:34:43;;;;;;;6.10;1.95;;;;;;;4.22;45.68;100465.62;1686889;83;21238;-76
2022/03/27 04:37:11;;;;;;;6.72;1.70;;;;;;;4.20;46.18;100470.31;1676502;83;21530;-74
2022/03/27 04:39:38;;;;;;;6.10;1.70;;;;;;;4.17;46.53;100466.78;1677741;83;21685;-74
2022/03/27 04:42:09;;;;;;;5.47;1.60;;;;;;;4.12;47.15;100490.42;1679865;84;21589;-76
2022/03/27 04:44:36;;;;;;;3.62;1.62;;;;;;;4.09;47.07;100473.16;1665426;84;21567;-75
2022/03/27 04:47:06;;;;;;;4.17;1.47;;;;;;;4.03;47.43;100499.64;1683184;83;21087;-71
2022/03/27 04:49:35;;;;;;;4.22;1.50;;;;;;;3.97;47.70;100490.21;1679490;84;21106;-75
2022/03/27 04:52:03;;;;;;;7.97;1.85;;;;;;;3.91;47.83;100507.44;1679840;83;21031;-76
2022/03/27 04:54:32;;;;;;;6.50;1.37;;;;;;;3.85;48.35;100517.53;1681137;83;21263;-74
2022/03/27 04:56:59;;;;;;;8.88;1.60;;;;;;;3.82;49.59;100528.05;1679879;83;21573;-75
2022/03/27 04:59:26;;;;;;;5.17;1.30;;;;;;;3.66;53.70;100566.33;1683257;84;21058;-75
2022/03/27 05:01:53;;;;;;;5.08;1.55;;;;;;;3.40;54.49;100535.57;1678315;84;21078;-76
2022/03/27 05:04:20;;;;;;;8.15;1.60;;;;;;;3.25;54.85;100537.66;1645320;85;21114;-74
2022/03/27 05:06:49;;;;;;;3.25;1.10;;;;;;;3.13;55.32;100546.75;1636256;86;21107;-75
2022/03/27 05:09:20;;;;;;;5.00;1.47;;;;;;;3.08;55.62;100557.10;1638166;86;21079;-74
2022/03/27 05:11:48;;;;;;;;;;;;;;;3.04;55.99;100574.38;1638417;86;21538;-73
2022/03/27 05:14:15;;;;;;;6.75;1.77;;;;;;;2.97;56.52;100583.63;1635509;87;20205;-75
2022/03/27 05:16:44;;;;;;;10.50;2.30;;;;;;;2.91;56.94;100569.13;1643059;86;21081;-76
2022/03/27 05:19:11;;;;;;;6.87;2.15;;;;;;;2.87;56.96;100570.05;1648301;85;21557;-75
2022/03/27 05:21:38;;;;;;;7.65;2.10;;;;;;;2.86;55.36;100567.09;1677713;84;21039;-76
2022/03/27 05:24:09;;;;;;;6.70;2.65;;;;;;;2.93;53.83;100556.52;1674386;83;21106;-74
2022/03/27 05:26:38;;;;;;;12.70;2.50;;;;;;;3.00;52.56;100569.22;1668871;84;21456;-74
2022/03/27 05:29:08;;;;;;;6.67;2.77;;;;;;;3.09;52.08;100575.06;1692073;83;21098;-74
2022/03/27 05:31:34;;;;;;;6.55;1.77;;;;;;;3.12;51.98;100580.73;1707164;83;22053;-74
2022/03/27 05:34:03;;;;;;;3.50;1.42;;;;;;;3.16;51.84;100596.48;1703629;83;21059;-75
2022/03/27 05:36:31;;;;;;;3.83;1.20;;;;;;;3.20;52.16;100591.08;1687611;83;21558;-77
2022/03/27 05:38:58;;;;;;;3.90;1.20;;;;;;;3.25;52.16;100597.85;1688705;83;21071;-74
2022/03/27 05:41:25;;;;;;;3.42;1.20;;;;;;;3.29;52.34;100600.88;1659185;84;21024;-74
2022/03/27 05:43:53;;;;;;;2.72;1.02;;;;;;;3.34;52.47;100595.80;1660537;85;21432;-76
2022/03/27 05:46:21;;;;;;;2.15;0.90;;;;;;;3.38;52.46;100599.64;1667246;84;21514;-75
2022/03/27 05:48:49;;;;;;;4.05;1.07;;;;;;;3.40;52.54;100647.78;1675800;84;21003;-74
2022/03/27 05:51:16;;;;;;;2.42;0.85;;;;;;;3.38;52.42;100608.88;1677189;84;21597;-75
2022/03/27 05:53:43;;;;;;;2.05;1.00;;;;;;;3.38;52.50;100603.60;1669190;83;21219;-75
2022/03/27 05:56:11;;;;;;;2.65;1.10;;;;;;;3.35;52.57;100615.90;1674933;85;21836;-75
2022/03/27 05:58:39;;;;;;;2.83;1.17;;;;;;;3.37;52.92;100629.72;1663633;84;20964;-74
2022/03/27 06:01:06;;;;;;;2.20;0.98;;;;;;;3.37;53.04;100631.03;1678576;83;21137;-75
2022/03/27 06:03:34;;;;;;;3.98;1.02;;;;;;;3.37;53.01;100618.34;1681013;83;21572;-75
2022/03/27 06:06:03;;;;;;;2.10;1.10;;;;;;;3.35;52.87;100626.97;1699559;83;21066;-73
2022/03/27 06:08:31;;;;;;;3.10;1.27;;;;;;;3.37;53.21;100638.95;1692716;84;22080;-73
2022/03/27 06:11:00;;;;;;;5.50;1.00;;;;;;;3.38;52.20;100660.37;1681065;84;21102;-73
2022/03/27 06:13:28;;;;;;;2.92;1.05;;;;;;;3.40;51.49;100627.17;1677727;84;21062;-74
2022/03/27 06:15:55;;;;;;;3.60;1.15;;;;;;;3.39;50.20;100656.73;1664047;85;21601;-73
2022/03/27 06:18:23;;;;;;;3.62;1.07;;;;;;;3.43;49.54;100667.17;1665489;84;21168;-75
2022/03/27 06:20:50;;;;;;;3.37;0.98;;;;;;;3.45;49.02;100649.27;1665493;85;21869;-74
2022/03/27 06:23:18;;;;;;;2.25;0.90;;;;;;;3.48;48.25;100655.98;1682551;84;21074;-75
2022/03/27 06:25:45;;;;;;;3.45;1.20;;;;;;;3.50;47.99;100674.56;1682651;83;21573;-74
2022/03/27 06:28:12;;;;;;;3.83;1.00;;;;;;;3.48;47.16;100648.86;1682111;84;21137;-74
2022/03/27 06:30:40;;;;;;;2.62;0.90;;;;;;;3.49;47.34;100658.42;1680359;83;21011;-77
2022/03/27 06:33:07;;;;;;;1.85;1.00;;;;;;;3.50;47.33;100674.56;1692426;84;21380;-74
2022/03/27 06:35:37;;;;;;;2.90;1.30;;;;;;;3.56;47.20;100673.45;1691943;83;21066;-74
2022/03/27 06:38:04;;;;;;;4.20;1.50;;;;;;;3.65;47.50;100678.78;1692286;84;22158;-75
2022/03/27 06:40:32;;;;;;;4.92;2.05;;;;;;;3.73;47.04;100686.48;1693079;84;21075;-73
2022/03/27 06:43:00;;;;;;;8.03;2.45;;;;;;;3.82;47.20;100694.49;1694035;84;21078;-73
2022/03/27 06:45:27;;;;;;;5.30;2.40;;;;;;;3.84;46.67;100696.91;1685156;84;22493;-73
2022/03/27 06:47:56;;;;;;;6.50;2.10;;;;;;;3.80;46.59;100679.34;1683004;84;21081;-74
2022/03/27 06:50:23;;;;;;;5.72;2.08;;;;;;;3.79;46.22;100700.70;1676311;84;21050;-75
2022/03/27 06:52:54;;;;;;;5.17;2.25;;;;;;;3.73;46.00;100717.68;1679771;84;21253;-74
2022/03/27 06:55:21;;;;;;;4.90;2.12;;;;;;;3.72;46.21;100687.52;1678976;84;21085;-75
2022/03/27 06:57:48;;;;;;;4.75;2.27;;;;;;;3.77;46.34;100726.00;1680065;83;21218;-74
2022/03/27 07:03:02;;;;;;;9.85;2.83;;;;;;;3.97;45.44;100699.50;1685548;83;21097;-75
2022/03/27 07:05:39;;;;;;;6.47;2.22;;;;;;;3.99;44.37;100722.06;1690378;84;21198;-74
2022/03/27 07:08:16;;;;;;;5.78;1.92;;;;;;;4.04;44.26;100698.96;1678718;83;20935;-74
2022/03/27 07:10:47;;;;;;;4.45;1.70;;;;;;;4.05;42.38;100697.96;1664506;86;21027;-73
2022/03/27 07:13:17;;;;;;;5.10;1.42;;;;;;;4.02;41.93;100706.82;1675830;84;21507;-74
2022/03/27 07:15:50;;;;;;;4.92;1.40;;;;;;;3.97;41.78;100721.97;1672976;83;21165;-75
2022/03/27 07:18:20;;;;;;;1.95;0.93;;;;;;;3.98;41.53;100723.09;1675946;84;21002;-74
2022/03/27 07:20:47;;;;;;;3.05;1.10;;;;;;;4.12;41.25;100790.45;1678084;83;21019;-73
2022/03/27 07:23:19;;;;;;;2.27;1.02;;;;;;;4.29;40.37;100751.94;1677829;84;21279;-73
2022/03/27 07:25:50;;;;;;;3.95;1.70;;;;;;;4.35;39.43;100763.00;1671700;84;21441;-75
2022/03/27 07:28:19;;;;;;;4.83;1.70;;;;;;;4.29;39.24;100741.87;1663876;84;21047;-74
2022/03/27 07:30:46;;;;;;;4.33;1.22;;;;;;;4.15;39.09;100746.41;1680394;83;21026;-72
2022/03/27 07:33:16;;;;;;;5.90;1.82;;;;;;;4.08;39.71;100737.67;1674794;84;21086;-75
2022/03/27 07:35:44;;;;;;;6.30;1.90;;;;;;;4.00;39.64;100757.23;1679474;84;21903;-72
2022/03/27 07:38:12;;;;;;;5.37;1.85;;;;;;;3.96;40.02;100791.19;1680096;84;21065;-75
2022/03/27 07:40:46;;;;;;;5.00;1.65;;;;;;;3.89;39.92;100769.78;1679334;84;21558;-79
2022/03/27 07:43:22;;;;;;;2.35;1.20;;;;;;;3.80;39.00;100800.88;1680180;83;21780;-74
2022/03/27 07:45:43;;;;;;;4.62;1.50;;;;;;;3.69;39.30;100785.67;1689295;83;21051;-74
2022/03/27 07:48:10;;;;;;;8.20;2.75;;;;;;;3.59;40.07;100782.13;1680818;84;21766;-76
2022/03/27 07:50:39;;;;;;;7.70;2.65;;;;;;;3.53;40.38;100803.56;1672854;84;21023;-75
2022/03/27 07:53:09;;;;;;;11.35;3.25;;;;;;;3.46;40.09;100812.00;1677649;84;21171;-76
2022/03/27 07:55:38;;;;;;;6.47;2.00;;;;;;;3.43;39.77;100817.69;1676714;84;21084;-74
2022/03/27 07:58:08;;;;;;;4.80;1.82;;;;;;;3.41;38.82;100796.45;1680050;83;21510;-74
2022/03/27 08:00:37;;;;;;;3.12;1.20;;;;;;;3.46;38.92;100808.55;1677182;83;21302;-72
2022/03/27 08:03:04;;;;;;;2.45;1.37;;;;;;;3.58;37.82;100788.41;1679066;84;21102;-73
2022/03/27 08:05:31;;;;;;;2.58;1.05;;;;;;;3.79;37.71;100805.88;1676799;84;21340;-75
2022/03/27 08:07:59;;;;;;;1.50;0.80;;;;;;;4.02;38.35;100791.40;1678643;84;21089;-75
2022/03/27 08:10:33;;;;;;;3.50;1.20;;;;;;;4.13;37.06;100785.45;1669761;84;21509;-74
2022/03/27 08:13:01;;;;;;;3.70;1.10;;;;;;;4.13;36.15;100788.09;1677562;84;21546;-76
2022/03/27 08:15:29;;;;;;;4.65;1.60;;;;;;;4.10;36.53;100793.80;1676570;84;21027;-74
2022/03/27 08:17:56;;;;;;;4.20;1.82;;;;;;;4.06;36.37;100797.38;1677056;84;21090;-76
2022/03/27 08:20:27;;;;;;;6.05;2.33;;;;;;;4.09;36.43;100782.94;1680027;83;21593;-75
2022/03/27 08:22:55;;;;;;;4.25;1.62;;;;;;;4.15;36.72;100803.25;1678814;84;21113;-74
2022/03/27 08:28:09;;;;;;;5.17;1.90;;;;;;;4.28;37.55;100812.46;1661378;85;21111;-74
2022/03/27 08:30:39;;;;;;;3.30;1.05;;;;;;;4.27;37.77;100817.42;1685745;83;21010;-73
2022/03/27 08:33:09;;;;;;;2.02;0.80;;;;;;;4.22;38.37;100892.09;1683071;84;20986;-74
2022/03/27 08:35:35;;;;;;;2.92;1.07;;;;;;;4.14;38.47;100820.11;1684445;83;21063;-75
2022/03/27 08:38:03;;;;;;;2.67;1.10;;;;;;;4.05;38.69;100885.63;1683042;84;21302;-74
2022/03/27 08:40:30;;;;;;;2.62;1.00;;;;;;;4.00;39.08;100854.50;1683717;84;21070;-72
2022/03/27 08:42:58;;;;;;;2.58;1.30;;;;;;;4.02;39.26;100838.97;1658794;85;21095;-74
2022/03/27 08:45:27;;;;;;;2.90;1.07;;;;;;;4.03;40.42;100837.94;1646532;87;21043;-76
2022/03/27 08:47:55;;;;;;;4.08;1.40;;;;;;;3.96;40.77;100870.99;1642141;86;21149;-76
2022/03/27 08:50:49;;;;;;;2.58;1.20;;;;;;;3.92;41.23;100848.64;1638332;86;21241;-76
2022/03/27 08:53:22;;;;;;;3.02;1.30;;;;;;;3.85;41.19;100884.33;1634075;87;21142;-75
2022/03/27 08:56:00;;;;;;;2.55;1.00;;;;;;;3.72;41.92;100892.25;1637850;86;21653;-74
2022/03/27 08:58:38;;;;;;;1.75;1.10;;;;;;;3.63;40.92;100882.91;1632518;86;21150;-77
2022/03/27 09:01:07;;;;;;;3.05;1.20;;;;;;;3.58;40.72;100879.53;1648084;86;21015;-75
2022/03/27 09:03:34;;;;;;;3.98;1.30;;;;;;;3.57;40.99;100883.70;1697699;82;22162;-76
2022/03/27 09:06:02;;;;;;;4.28;1.40;;;;;;;3.62;41.10;100884.73;1683412;83;22464;-74
2022/03/27 09:08:29;;;;;;;3.72;1.40;;;;;;;3.80;40.74;100868.77;1679078;84;21068;-71
2022/03/27 09:10:56;;;;;;;7.67;2.40;;;;;;;4.01;39.79;100859.28;1680242;84;22236;-75
2022/03/27 09:13:25;;;;;;;7.60;2.70;;;;;;;4.26;38.79;100871.85;1685131;84;21102;-74
2022/03/27 09:16:04;;;;;;;3.12;1.30;;;;;;;4.41;37.69;100860.02;1684881;84;39174;-75
2022/03/27 09:18:52;;;;;;;7.33;2.30;;;;;;;4.60;36.72;100847.71;1681525;84;21054;-75
2022/03/27 09:21:23;;;;;;;2.90;1.20;;;;;;;4.73;36.98;100848.17;1662430;85;21012;-74
2022/03/27 09:23:54;;;;;;;4.58;1.20;;;;;;;4.80;35.93;100844.16;1646400;85;21083;-75
2022/03/27 09:26:21;;;;;;;3.83;1.20;;;;;;;4.81;36.18;100862.50;1659057;84;21047;-75
2022/03/27 09:28:52;;;;;;;2.87;1.25;;;;;;;4.79;35.75;100867.69;1703061;83;21236;-76
2022/03/27 09:31:23;;;;;;;;;;;;;;;4.75;36.25;100856.72;1688621;83;21073;-74
2022/03/27 09:33:57;;;;;;;2.72;1.20;;;;;;;4.78;36.21;100871.37;1688359;84;20191;-74
2022/03/27 09:36:30;;;;;;;3.58;1.20;;;;;;;4.83;36.35;100872.34;1682674;84;21116;-73
2022/03/27 09:39:11;;;;;;;4.20;1.17;;;;;;;4.98;36.43;100880.02;1677108;84;21066;-74
2022/03/27 09:41:53;;;;;;;3.40;1.00;;;;;;;5.09;35.93;100856.02;1681267;83;21335;-77
2022/03/27 09:44:30;;;;;;;8.13;1.27;;;;;;;5.09;35.58;100919.56;1661797;84;21134;-75
2022/03/27 09:47:04;;;;;;;2.44;0.91;;;;;;;4.99;35.49;100894.06;1452003;84;10000606;-75
2022/03/27 09:49:46;;;;;;;1.77;0.95;;;;;;;4.96;35.50;100870.66;1627498;88;21369;-73
2022/03/27 09:52:19;;;;;;;;;;;;;;;4.97;35.72;100872.27;1665775;83;21264;-75
2022/03/27 09:54:57;;;;;;;4.37;1.22;;;;;;;5.01;35.54;100887.53;1624648;87;20182;-73
2022/03/27 09:57:36;;;;;;;4.72;1.40;;;;;;;5.11;35.92;100888.41;1643298;84;21139;-75
2022/03/27 10:00:18;;;;;;;2.52;1.30;;;;;;;5.13;36.35;100894.27;1688541;84;21081;-74
2022/03/27 10:02:51;;;;;;;2.62;1.00;;;;;;;5.13;36.71;100868.63;1681150;81;21120;-75
2022/03/27 10:05:19;;;;;;;2.22;1.05;;;;;;;5.19;36.63;100885.48;1691750;84;21243;-78
2022/03/27 10:07:56;;;;;;;4.17;1.27;;;;;;;5.25;36.45;100895.23;1692996;84;21092;-76
2022/03/27 10:10:24;;;;;;;2.40;1.17;;;;;;;5.27;35.96;100861.41;1691816;81;21200;-76
2022/03/27 10:12:55;;;;;;;1.87;0.90;;;;;;;5.23;35.83;100926.43;1677981;84;21094;-72
2022/03/27 10:15:28;;;;;;;5.10;1.37;;;;;;;5.16;35.24;100876.64;1696430;82;21231;-73
2022/03/27 10:18:06;;;;;;;2.80;1.10;;;;;;;5.15;35.64;100878.48;1697407;84;21068;-76
2022/03/27 10:20:37;;;;;;;3.10;1.20;;;;;;;5.24;35.47;100902.89;1689484;82;21112;-75
2022/03/27 10:23:10;;;;;;;2.62;1.30;;;;;;;5.37;34.79;100901.48;1691369;84;21245;-76
2022/03/27 10:25:45;;;;;;;6.28;1.30;;;;;;;5.44;34.59;100950.96;1684801;83;21563;-73
2022/03/27 10:28:12;;;;;;;4.20;1.37;;;;;;;5.43;34.74;100895.84;1675411;85;21138;-76
2022/03/27 10:30:41;;;;;;;6.12;1.47;;;;;;;5.43;34.87;100882.60;1678922;84;21870;-77
2022/03/27 10:33:08;;;;;;;4.17;1.32;;;;;;;5.43;34.41;100893.69;1699059;83;21053;-76
2022/03/27 10:36:17;;;;;;;2.45;1.12;;;;;;;5.35;34.47;100887.63;1657874;85;21084;-74
2022/03/27 10:39:06;;;;;;;2.95;1.20;;;;;;;5.32;34.48;100915.05;1672071;85;21035;-75
2022/03/27 10:41:45;;;;;;;4.40;1.20;;;;;;;5.29;34.87;100903.05;1691415;83;21503;-75
2022/03/27 10:44:35;;;;;;;3.47;1.20;;;;;;;5.32;34.75;100888.05;1692071;84;21105;-75
2022/03/27 10:47:20;;;;;;;4.42;1.20;;;;;;;5.43;34.59;100887.90;1653308;86;21140;-75
2022/03/27 10:50:08;;;;;;;3.35;1.50;;;;;;;5.60;34.31;100881.03;1672797;84;21505;-75
2022/03/27 10:52:54;;;;;;;3.47;1.60;;;;;;;5.77;34.12;100879.98;1691370;83;21577;-76
2022/03/27 10:55:22;;;;;;;4.20;1.30;;;;;;;5.80;33.71;100894.64;1692454;83;21062;-76
2022/03/27 10:57:50;;;;;;;2.50;1.07;;;;;;;5.80;32.80;100853.04;1691406;84;21239;-76
2022/03/27 11:00:39;;;;;;;4.10;1.30;;;;;;;5.86;32.51;100869.41;1692129;83;21046;-75
2022/03/27 11:03:07;;;;;;;4.85;1.60;;;;;;;5.97;32.91;100868.42;1609062;83;21075;-77
2022/03/27 11:05:41;;;;;;;4.17;1.67;;;;;;;6.17;32.96;100843.83;1695830;83;21094;-74
2022/03/27 11:08:23;;;;;;;4.75;1.65;;;;;;;6.28;32.87;100879.41;1673633;83;21070;-75
2022/03/27 11:10:55;;;;;;;9.20;1.77;;;;;;;6.36;32.56;100857.91;1655055;85;21051;-73
2022/03/27 11:13:39;;;;;;;4.90;1.30;;;;;;;6.39;31.51;100853.49;1616110;87;21701;-73
2022/03/27 11:16:10;;;;;;;4.40;1.22;;;;;;;6.41;31.00;100873.16;1634339;87;21087;-76
2022/03/27 11:18:49;;;;;;;4.33;1.47;;;;;;;6.48;30.44;100887.99;1642831;87;21104;-71
2022/03/27 11:21:32;;;;;;;2.05;0.93;;;;;;;6.47;30.02;100875.73;1643841;87;21024;-75
2022/03/27 11:24:09;;;;;;;3.05;1.30;;;;;;;6.38;29.95;100865.12;1642071;86;21569;-74
2022/03/27 11:26:37;;;;;;;4.00;1.50;;;;;;;6.33;30.57;100875.59;1629362;86;21082;-76
2022/03/27 11:29:23;;;;;;;4.22;1.35;;;;;;;6.34;30.19;100886.50;1659229;86;21123;-75
2022/03/27 11:32:09;;;;;;;4.92;1.35;;;;;;;6.33;30.55;100857.03;1661112;85;21150;-73
2022/03/27 11:34:38;;;;;;;3.02;1.52;;;;;;;6.32;29.86;100864.18;1650523;86;21106;-74
2022/03/27 11:37:27;;;;;;;5.12;1.42;;;;;;;6.36;29.59;100863.74;1645680;86;21613;-74
2022/03/27 11:39:54;;;;;;;5.72;1.40;;;;;;;6.44;29.38;100912.52;1659924;86;21107;-75
2022/03/27 11:42:36;;;;;;;3.65;1.35;;;;;;;6.50;28.30;100863.87;1657567;85;21644;-74
2022/03/27 11:45:17;;;;;;;5.42;1.10;;;;;;;6.54;27.98;100876.98;1659939;86;21587;-73
2022/03/27 11:47:48;;;;;;;3.77;1.32;;;;;;;6.51;28.06;100872.92;1660151;86;21169;-74
2022/03/27 11:50:34;;;;;;;3.15;1.10;;;;;;;6.56;28.57;100864.31;1647995;84;21606;-73
2022/03/27 11:53:03;;;;;;;4.37;1.25;;;;;;;6.65;28.51;100890.86;1652877;84;22229;-75
2022/03/27 11:55:33;;;;;;;4.55;1.25;;;;;;;6.76;29.02;100876.02;1644065;86;21115;-76
2022/03/27 11:58:03;;;;;;;3.50;1.20;;;;;;;6.78;28.41;100875.28;1637712;85;21130;-76